パゴパゴ の空港の天気 - METARとTAF

パゴパゴ国際空港 ( NSTU / PPG ) - アメリカ領サモア パゴパゴ
飛行場実況気象(Metar)
観測時間05/30 05:50 SST (05/30 16:50 UTC)
風向・風速東 6m/s
視程10km以上
天気現象
少しの雲 雲底高度 550m
全天の8割程度の雲 雲底高度 1220m
全天の8割程度の雲 雲底高度 3050m
気温28℃
湿度83%
気圧1015.2hPa
METARNSTU 301650Z 09011KT 10SM FEW018 BKN040 BKN100 28/25 A2998 RMK SLP152 T02800249
過去の天気等 Google飛行場航空写真 Wunderground天気予報

過去48時間のMETAR

飛行場予報(TAF)
発表時間: 5/30 06:37 SST (5/30 17:37 UTC)
予報対象時間: 30日7時 SST ~ 31日7時 SST
風向・風速東南東 5m/s
視程10km以上
天気現象周辺でしゅう雨
全天の4割程度の雲 雲底高度 610m
全天の4割程度の雲 雲底高度 1220m
全天の8割程度の雲 雲底高度 3050m
NSTU 301737Z 3018/3118 11010KT P6SM VCSH SCT020 SCT040 BKN100